createdAt,value
2023-04-26T00:01:09.922Z,4.80
2023-04-26T00:08:31.208Z,4.88
2023-04-26T00:18:14.681Z,4.53
2023-04-26T00:20:41.602Z,5.57
2023-04-26T00:23:10.570Z,5.20
2023-04-26T00:25:37.466Z,4.90
2023-04-26T00:28:04.282Z,5.13
2023-04-26T00:30:30.964Z,5.63
2023-04-26T00:37:48.560Z,5.60
2023-04-26T00:40:17.227Z,5.53
2023-04-26T00:42:43.869Z,5.85
2023-04-26T00:45:10.630Z,5.65
2023-04-26T00:47:37.533Z,5.60
2023-04-26T00:50:04.837Z,5.90
2023-04-26T00:52:31.899Z,5.28
2023-04-26T00:54:58.719Z,6.20
2023-04-26T00:57:26.154Z,5.70
2023-04-26T00:59:53.216Z,5.57
2023-04-26T01:02:19.983Z,6.03
2023-04-26T01:04:48.170Z,5.57
2023-04-26T01:07:14.828Z,6.25
2023-04-26T01:09:41.501Z,5.88
2023-04-26T01:12:08.924Z,6.05
2023-04-26T01:14:36.906Z,6.85
2023-04-26T01:17:04.024Z,5.57
2023-04-26T01:19:30.713Z,5.72
2023-04-26T01:21:57.414Z,6.15
2023-04-26T01:24:24.149Z,5.60
2023-04-26T01:26:51.047Z,6.85
2023-04-26T01:29:18.534Z,6.15
2023-04-26T01:31:46.066Z,5.72
2023-04-26T01:34:12.801Z,6.05
2023-04-26T01:36:39.442Z,6.45
2023-04-26T01:39:06.394Z,6.40
2023-04-26T01:41:33.777Z,6.10
2023-04-26T01:44:01.391Z,6.30
2023-04-26T01:46:28.154Z,6.38
2023-04-26T01:48:55.038Z,5.90
2023-04-26T01:51:22.921Z,6.38
2023-04-26T01:53:49.645Z,6.63
2023-04-26T01:56:16.894Z,6.00
2023-04-26T01:58:43.653Z,7.38
2023-04-26T02:01:10.325Z,6.05
2023-04-26T02:03:37.206Z,6.68
2023-04-26T02:06:04.150Z,6.03
2023-04-26T02:08:31.061Z,6.55
2023-04-26T02:10:57.832Z,5.95
2023-04-26T02:13:24.864Z,7.20
2023-04-26T02:20:43.697Z,6.72
2023-04-26T02:26:13.401Z,6.70
2023-04-26T02:28:42.837Z,6.70
2023-04-26T02:31:09.476Z,6.85
2023-04-26T02:33:36.172Z,6.50
2023-04-26T02:36:05.128Z,7.28
2023-04-26T02:38:35.751Z,7.07
2023-04-26T02:41:04.540Z,6.45
2023-04-26T02:43:31.533Z,7.28
2023-04-26T02:46:01.535Z,7.10
2023-04-26T02:50:53.828Z,6.88
2023-04-26T02:53:20.956Z,7.10
2023-04-26T02:58:13.374Z,7.35
2023-04-26T03:00:45.521Z,7.43
2023-04-26T03:05:37.962Z,7.38
2023-04-26T03:08:04.815Z,7.47
2023-04-26T03:10:31.558Z,8.88
2023-04-26T03:12:58.249Z,8.00
2023-04-26T03:15:24.847Z,7.93
2023-04-26T03:20:17.937Z,8.13
2023-04-26T03:22:44.758Z,7.20
2023-04-26T03:27:38.714Z,8.02
2023-04-26T03:30:06.076Z,8.50
2023-04-26T03:32:34.384Z,8.10
2023-04-26T03:38:23.871Z,8.25
2023-04-26T03:40:50.935Z,7.43
2023-04-26T03:43:32.806Z,8.13
2023-04-26T03:46:00.910Z,8.07
2023-04-26T03:48:27.601Z,8.10
2023-04-26T03:53:19.646Z,7.70
2023-04-26T03:55:46.341Z,7.72
2023-04-26T03:58:13.186Z,8.65
2023-04-26T04:00:43.677Z,8.98
2023-04-26T04:03:10.741Z,8.55
2023-04-26T04:05:37.895Z,8.75
2023-04-26T04:08:04.651Z,9.15
2023-04-26T04:10:31.423Z,8.45
2023-04-26T04:17:50.225Z,8.13
2023-04-26T04:20:17.116Z,8.48
2023-04-26T04:22:44.060Z,8.60
2023-04-26T04:25:10.956Z,9.15
2023-04-26T04:27:39.096Z,8.80
2023-04-26T04:30:07.636Z,8.23
2023-04-26T04:32:38.113Z,8.75
2023-04-26T04:37:33.148Z,8.77
2023-04-26T04:40:00.489Z,9.60
2023-04-26T04:42:28.313Z,9.02
2023-04-26T04:44:57.677Z,9.40
2023-04-26T04:47:25.116Z,8.88
2023-04-26T04:49:53.079Z,10.07
2023-04-26T04:54:47.491Z,8.85
2023-04-26T04:57:16.788Z,9.07
2023-04-26T05:02:11.124Z,8.52
2023-04-26T05:04:38.406Z,8.63
2023-04-26T05:09:32.225Z,9.45
2023-04-26T05:11:59.041Z,8.88
2023-04-26T05:14:27.032Z,9.50
2023-04-26T05:16:54.641Z,8.73
2023-04-26T05:19:22.085Z,9.57
2023-04-26T05:24:14.188Z,9.43
2023-04-26T05:26:41.020Z,8.68
2023-04-26T05:29:07.701Z,9.40
2023-04-26T05:31:47.181Z,9.10
2023-04-26T05:34:34.235Z,9.20
2023-04-26T05:37:01.228Z,11.55
2023-04-26T05:39:27.915Z,10.02
2023-04-26T05:41:54.762Z,10.52
2023-04-26T05:44:21.534Z,8.82
2023-04-26T05:46:48.141Z,8.27
2023-04-26T05:49:15.002Z,8.90
2023-04-26T05:51:41.900Z,9.77
2023-04-26T05:54:08.559Z,9.70
2023-04-26T05:59:00.746Z,9.40
2023-04-26T06:01:27.882Z,8.68
2023-04-26T06:03:57.993Z,9.23
2023-04-26T06:06:30.598Z,8.80
2023-04-26T06:08:57.244Z,8.63
2023-04-26T06:11:23.961Z,9.18
2023-04-26T06:13:50.984Z,9.18
2023-04-26T06:21:46.765Z,8.27
2023-04-26T06:24:13.520Z,9.20
2023-04-26T06:26:40.246Z,8.52
2023-04-26T06:33:58.230Z,9.23
2023-04-26T06:36:25.989Z,8.18
2023-04-26T06:38:53.078Z,7.90
2023-04-26T06:41:19.688Z,7.82
2023-04-26T06:46:14.487Z,8.45
2023-04-26T06:48:41.233Z,8.02
2023-04-26T06:53:34.336Z,7.47
2023-04-26T06:56:01.013Z,7.00
2023-04-26T07:00:53.070Z,8.63
2023-04-26T07:03:20.317Z,7.90
2023-04-26T07:05:47.102Z,8.10
2023-04-26T07:08:14.093Z,8.10
2023-04-26T07:10:41.257Z,8.07
2023-04-26T07:15:33.497Z,7.65
2023-04-26T07:18:00.404Z,7.45
2023-04-26T07:20:27.252Z,7.30
2023-04-26T07:22:54.005Z,7.13
2023-04-26T07:25:21.041Z,7.80
2023-04-26T07:27:47.713Z,7.00
2023-04-26T07:30:14.564Z,7.40
2023-04-26T07:32:41.595Z,8.05
2023-04-26T07:40:01.627Z,7.63
2023-04-26T07:42:28.435Z,8.00
2023-04-26T07:44:55.088Z,8.07
2023-04-26T07:47:21.905Z,8.68
2023-04-26T07:49:52.798Z,7.63
2023-04-26T07:52:19.492Z,8.35
2023-04-26T07:54:46.838Z,8.05
2023-04-26T07:57:13.531Z,8.63
2023-04-26T07:59:40.192Z,8.45
2023-04-26T08:02:07.234Z,8.75
2023-04-26T08:04:34.691Z,9.07
2023-04-26T08:07:04.287Z,8.15
2023-04-26T08:09:31.023Z,8.63
2023-04-26T08:11:58.054Z,9.73
2023-04-26T08:14:24.909Z,9.10
2023-04-26T08:16:51.743Z,8.45
2023-04-26T08:19:18.604Z,8.70
2023-04-26T08:21:45.314Z,8.70
2023-04-26T08:24:12.012Z,8.25
2023-04-26T08:26:38.706Z,8.25
2023-04-26T08:29:05.421Z,8.10
2023-04-26T08:31:32.338Z,8.27
2023-04-26T08:33:59.170Z,8.02
2023-04-26T08:36:26.215Z,8.20
2023-04-26T08:38:52.818Z,8.27
2023-04-26T08:41:22.516Z,8.07
2023-04-26T08:43:49.760Z,8.95
2023-04-26T08:46:19.145Z,8.68
2023-04-26T08:48:49.794Z,8.45
2023-04-26T08:51:17.032Z,7.55
2023-04-26T08:53:43.864Z,8.50
2023-04-26T08:58:37.952Z,8.15
2023-04-26T09:01:05.442Z,7.50
2023-04-26T09:03:32.232Z,8.35
2023-04-26T09:05:59.593Z,8.23
2023-04-26T09:08:28.189Z,7.97
2023-04-26T09:10:54.825Z,9.27
2023-04-26T09:13:28.337Z,8.35
2023-04-26T09:15:55.063Z,9.20
2023-04-26T09:18:22.864Z,9.25
2023-04-26T09:21:17.995Z,9.65
2023-04-26T09:23:57.899Z,8.40
2023-04-26T09:31:35.562Z,7.90
2023-04-26T09:34:02.280Z,7.57
2023-04-26T09:36:28.974Z,7.80
2023-04-26T09:41:21.988Z,7.88
2023-04-26T09:43:50.298Z,8.38
2023-04-26T09:49:00.364Z,8.05
2023-04-26T09:53:53.175Z,8.13
2023-04-26T09:56:22.206Z,8.18
2023-04-26T10:01:24.738Z,7.95
2023-04-26T10:03:52.186Z,7.50
2023-04-26T10:08:44.759Z,8.05
2023-04-26T10:11:12.647Z,8.15
2023-04-26T10:13:40.084Z,7.22
2023-04-26T10:16:06.984Z,7.63
2023-04-26T10:18:33.916Z,7.05
2023-04-26T10:25:56.558Z,7.82
2023-04-26T10:31:26.103Z,7.38
2023-04-26T10:34:28.595Z,7.10
2023-04-26T10:42:25.092Z,7.32
2023-04-26T10:44:56.246Z,7.18
2023-04-26T10:49:53.688Z,6.63
2023-04-26T10:52:23.252Z,7.10
2023-04-26T10:57:17.181Z,7.22
2023-04-26T11:00:05.412Z,7.05
2023-04-26T11:02:53.450Z,6.75
2023-04-26T11:08:07.709Z,6.85
2023-04-26T11:10:35.772Z,6.68
2023-04-26T11:13:03.809Z,6.93
2023-04-26T11:15:34.055Z,6.72
2023-04-26T11:18:04.655Z,6.60
2023-04-26T11:20:34.728Z,6.47
2023-04-26T11:23:01.669Z,6.88
2023-04-26T11:25:29.050Z,6.18
2023-04-26T11:28:02.437Z,6.60
2023-04-26T11:30:32.861Z,6.25
2023-04-26T11:33:00.541Z,5.70
2023-04-26T11:35:29.575Z,5.72
2023-04-26T11:38:02.276Z,5.15
2023-04-26T11:40:30.208Z,5.88
2023-04-26T11:43:06.814Z,6.45
2023-04-26T11:45:35.153Z,5.32
2023-04-26T11:50:33.411Z,5.18
2023-04-26T11:53:01.193Z,6.30
2023-04-26T11:55:28.360Z,5.32
2023-04-26T11:57:55.103Z,5.82
2023-04-26T12:00:21.884Z,5.22
2023-04-26T12:02:49.276Z,5.90
2023-04-26T12:05:23.160Z,5.65
2023-04-26T12:07:50.300Z,5.35
2023-04-26T12:10:17.988Z,5.00
2023-04-26T12:12:47.168Z,4.82
2023-04-26T12:15:15.614Z,5.28
2023-04-26T12:17:51.675Z,5.75
2023-04-26T12:20:18.692Z,5.05
2023-04-26T12:23:03.829Z,4.32
2023-04-26T12:25:30.955Z,4.65
2023-04-26T12:27:58.034Z,4.40
2023-04-26T12:30:25.851Z,5.18
2023-04-26T12:33:15.356Z,4.80
2023-04-26T12:35:43.702Z,4.85
2023-04-26T12:40:36.893Z,5.15
2023-04-26T12:43:03.602Z,5.20
2023-04-26T12:45:30.376Z,4.10
2023-04-26T12:47:57.197Z,4.55
2023-04-26T12:50:24.020Z,4.40
2023-04-26T12:52:50.762Z,4.50
2023-04-26T12:55:17.695Z,4.65
2023-04-26T12:57:44.876Z,5.85
2023-04-26T13:00:12.915Z,4.50
2023-04-26T13:02:40.168Z,4.65
2023-04-26T13:05:07.361Z,5.20
2023-04-26T13:07:34.699Z,5.03
2023-04-26T13:10:01.676Z,4.85
2023-04-26T13:12:28.551Z,5.35
2023-04-26T13:15:11.500Z,4.68
2023-04-26T13:17:38.383Z,4.43
2023-04-26T13:20:06.632Z,5.03
2023-04-26T13:22:33.646Z,4.43
2023-04-26T13:25:00.603Z,4.93
2023-04-26T13:27:29.875Z,4.47
2023-04-26T13:29:57.960Z,4.82
2023-04-26T13:32:24.730Z,4.75
2023-04-26T13:34:51.875Z,4.90
2023-04-26T13:37:21.364Z,5.22
2023-04-26T13:39:48.641Z,4.97
2023-04-26T13:42:16.542Z,5.03
2023-04-26T13:47:08.843Z,5.13
2023-04-26T13:49:35.518Z,4.55
2023-04-26T13:54:28.087Z,4.70
2023-04-26T13:56:54.852Z,5.15
2023-04-26T13:59:21.965Z,4.63
2023-04-26T14:01:48.835Z,5.03
2023-04-26T14:04:16.015Z,4.72
2023-04-26T14:09:08.879Z,5.30
2023-04-26T14:11:35.754Z,4.53
2023-04-26T14:14:02.442Z,4.80
2023-04-26T14:16:29.236Z,5.15
2023-04-26T14:18:56.098Z,5.03
2023-04-26T14:21:22.853Z,4.57
2023-04-26T14:23:49.569Z,5.28
2023-04-26T14:26:17.648Z,5.57
2023-04-26T14:31:09.776Z,4.53
2023-04-26T14:33:36.739Z,4.28
2023-04-26T14:40:54.477Z,4.82
2023-04-26T14:45:46.735Z,4.32
2023-04-26T14:48:13.524Z,4.53
2023-04-26T14:55:31.401Z,4.30
2023-04-26T14:57:58.135Z,5.07
2023-04-26T15:00:25.646Z,4.88
2023-04-26T15:02:52.433Z,4.55
2023-04-26T15:07:44.702Z,5.38
2023-04-26T15:10:11.460Z,5.15
2023-04-26T15:15:04.078Z,5.15
2023-04-26T15:17:34.204Z,5.00
2023-04-26T15:22:27.178Z,5.35
2023-04-26T15:24:53.946Z,5.45
2023-04-26T15:27:20.749Z,5.22
2023-04-26T15:29:47.382Z,5.28
2023-04-26T15:32:13.972Z,5.15
2023-04-26T15:34:43.509Z,5.60
2023-04-26T15:37:12.943Z,5.25
2023-04-26T15:44:57.061Z,5.15
2023-04-26T15:47:23.820Z,5.65
2023-04-26T15:49:50.471Z,5.85
2023-04-26T15:52:18.214Z,5.20
2023-04-26T15:54:44.876Z,5.35
2023-04-26T15:57:11.514Z,7.00
2023-04-26T15:59:38.241Z,5.63
2023-04-26T16:02:06.046Z,5.47
2023-04-26T16:04:33.061Z,5.40
2023-04-26T16:06:59.888Z,5.40
2023-04-26T16:19:08.442Z,6.00
2023-04-26T16:21:35.655Z,6.20
2023-04-26T16:24:02.549Z,6.18
2023-04-26T16:26:29.333Z,6.40
2023-04-26T16:28:55.988Z,6.53
2023-04-26T16:33:48.114Z,7.78
2023-04-26T16:36:15.257Z,7.70
2023-04-26T16:41:07.385Z,7.43
2023-04-26T16:43:34.185Z,7.20
2023-04-26T16:48:27.261Z,9.00
2023-04-26T16:50:54.051Z,12.20
2023-04-26T16:55:47.035Z,12.13
2023-04-26T16:58:14.355Z,8.27
2023-04-26T17:00:44.650Z,7.07
2023-04-26T17:03:20.734Z,6.82
2023-04-26T17:05:48.351Z,6.40
2023-04-26T17:08:18.360Z,7.15
2023-04-26T17:10:46.063Z,6.88
2023-04-26T17:13:15.653Z,7.10
2023-04-26T17:15:42.709Z,6.93
2023-04-26T17:20:35.577Z,7.43
2023-04-26T17:23:04.107Z,6.90
2023-04-26T17:25:31.418Z,7.32
2023-04-26T17:27:58.215Z,7.60
2023-04-26T17:30:24.898Z,8.48
2023-04-26T17:35:17.036Z,7.90
2023-04-26T17:37:46.272Z,7.47
2023-04-26T17:40:13.049Z,8.88
2023-04-26T17:52:22.160Z,9.90
2023-04-26T17:54:48.894Z,8.43
2023-04-26T17:57:18.161Z,8.85
2023-04-26T17:59:44.908Z,8.38
2023-04-26T18:02:11.677Z,9.18
2023-04-26T18:07:04.447Z,10.07
2023-04-26T18:09:31.305Z,9.70
2023-04-26T18:11:58.053Z,9.77
2023-04-26T18:14:27.968Z,9.45
2023-04-26T18:16:54.769Z,8.82
2023-04-26T18:19:21.455Z,8.38
2023-04-26T18:21:52.301Z,8.05
2023-04-26T18:24:19.610Z,8.27
2023-04-26T18:26:46.430Z,7.97
2023-04-26T18:29:13.137Z,8.55
2023-04-26T18:31:39.880Z,8.10
2023-04-26T18:36:32.534Z,8.48
2023-04-26T18:39:00.868Z,9.07
2023-04-26T18:43:53.703Z,10.15
2023-04-26T18:46:21.423Z,9.65
2023-04-26T18:48:48.209Z,10.38
2023-04-26T18:51:15.065Z,11.57
2023-04-26T18:53:41.660Z,10.45
2023-04-26T18:58:33.785Z,10.18
2023-04-26T19:01:01.072Z,11.25
2023-04-26T19:08:19.526Z,10.50
2023-04-26T19:10:46.378Z,10.75
2023-04-26T19:13:12.955Z,11.07
2023-04-26T19:15:39.707Z,11.27
2023-04-26T19:18:06.473Z,11.07
2023-04-26T19:20:33.161Z,10.68
2023-04-26T19:22:59.801Z,10.70
2023-04-26T19:25:27.432Z,10.73
2023-04-26T19:27:54.136Z,10.63
2023-04-26T19:30:20.951Z,11.63
2023-04-26T19:32:47.670Z,10.95
2023-04-26T19:35:14.503Z,10.02
2023-04-26T19:37:41.166Z,10.55
2023-04-26T19:40:09.181Z,11.07
2023-04-26T19:42:36.029Z,11.35
2023-04-26T19:45:03.059Z,10.95
2023-04-26T19:47:29.701Z,10.27
2023-04-26T19:49:57.791Z,11.75
2023-04-26T19:52:24.489Z,10.38
2023-04-26T19:54:54.529Z,11.70
2023-04-26T19:57:22.201Z,11.80
2023-04-26T19:59:48.860Z,11.38
2023-04-26T20:02:15.609Z,11.82
2023-04-26T20:04:43.025Z,12.63
2023-04-26T20:07:10.096Z,11.95
2023-04-26T20:09:36.799Z,11.23
2023-04-26T20:12:03.633Z,11.73
2023-04-26T20:14:30.633Z,11.07
2023-04-26T20:16:57.449Z,13.27
2023-04-26T20:19:24.170Z,12.13
2023-04-26T20:21:50.865Z,11.98
2023-04-26T20:26:42.993Z,12.50
2023-04-26T20:29:10.007Z,12.57
2023-04-26T20:34:02.365Z,13.27
2023-04-26T20:36:29.192Z,14.07
2023-04-26T20:41:21.634Z,13.10
2023-04-26T20:43:48.296Z,12.25
2023-04-26T20:48:41.111Z,12.38
2023-04-26T20:51:07.829Z,11.55
2023-04-26T20:53:34.493Z,11.65
2023-04-26T20:56:01.147Z,12.45
2023-04-26T20:58:27.777Z,11.65
2023-04-26T21:05:46.938Z,12.05
2023-04-26T21:08:13.748Z,12.07
2023-04-26T21:10:40.478Z,11.82
2023-04-26T21:13:07.075Z,11.48
2023-04-26T21:15:33.811Z,11.38
2023-04-26T21:18:00.571Z,11.10
2023-04-26T21:20:27.266Z,11.50
2023-04-26T21:22:54.090Z,11.80
2023-04-26T21:25:20.762Z,10.68
2023-04-26T21:27:47.456Z,10.90
2023-04-26T21:32:40.416Z,11.18
2023-04-26T21:35:07.627Z,12.20
2023-04-26T21:37:34.320Z,11.15
2023-04-26T21:40:01.322Z,11.20
2023-04-26T21:42:27.987Z,11.20
2023-04-26T21:47:20.059Z,12.05
2023-04-26T21:49:46.767Z,11.75
2023-04-26T21:52:13.453Z,11.95
2023-04-26T21:54:40.167Z,10.77
2023-04-26T21:57:07.157Z,11.55
2023-04-26T21:59:33.980Z,11.45
2023-04-26T22:02:01.297Z,11.18
2023-04-26T22:04:28.097Z,12.98
2023-04-26T22:06:55.074Z,12.48
2023-04-26T22:09:21.823Z,12.25
2023-04-26T22:11:48.458Z,11.95
2023-04-26T22:14:15.187Z,12.43
2023-04-26T22:16:42.020Z,12.05
2023-04-26T22:19:08.886Z,12.57
2023-04-26T22:21:36.573Z,13.05
2023-04-26T22:24:03.344Z,11.55
2023-04-26T22:26:29.939Z,11.50
2023-04-26T22:31:22.175Z,12.57
2023-04-26T22:33:48.925Z,11.90
2023-04-26T22:38:41.142Z,13.63
2023-04-26T22:41:07.844Z,12.88
2023-04-26T22:46:00.642Z,12.48
2023-04-26T22:48:27.466Z,11.82
2023-04-26T22:50:54.109Z,13.32
2023-04-26T22:53:21.551Z,12.00
2023-04-26T22:55:48.220Z,12.48
2023-04-26T23:00:42.329Z,12.68
2023-04-26T23:03:09.112Z,12.68
2023-04-26T23:08:02.016Z,12.00
2023-04-26T23:10:28.742Z,13.02
2023-04-26T23:12:55.556Z,12.75
2023-04-26T23:15:22.245Z,13.13
2023-04-26T23:17:49.381Z,12.73
2023-04-26T23:22:42.670Z,13.27
2023-04-26T23:25:10.306Z,13.23
2023-04-26T23:27:37.361Z,12.57
2023-04-26T23:30:04.839Z,13.23
2023-04-26T23:32:31.535Z,12.15
2023-04-26T23:34:58.295Z,13.60
2023-04-26T23:37:25.024Z,12.57
2023-04-26T23:39:52.198Z,12.88
2023-04-26T23:44:44.336Z,12.65
2023-04-26T23:47:11.062Z,13.52
2023-04-26T23:52:03.139Z,13.25
2023-04-26T23:54:29.819Z,12.93
2023-04-26T23:56:56.897Z,12.57
2023-04-26T23:59:23.672Z,12.65
